Tiempo atmosférico en la estación meteorológica de Abla, Almería (885 m.)

Fecha
DESCASC
Temp. máxima en grados centígrados (hora)
DESCASC
Temp. mínima en grados centígrados (hora)
DESCASC
Temp. media en grados centígrados
DESCASC
Racha de viento máxima en m/sg (hora)
DESCASC
Velocidad máxima media en intervalos de 10 minutos(hora)
DESCASC
Precipitaciones diarias en mm
DESCASC
Precipitaciones de 00:00 a 06:00 en mm
DESCASC
Precipitaciones de 06:00 a 12:00 en mm
DESCASC
Precipitaciones de 12:00 a 18:00 en mm
DESCASC
Precipitaciones de 18:00 a 24:00 en mm
DESCASC
23-11-2017 24.3 (13:20) 8.5 (03:00) 16.4 8.06 (13:40) 3.61 (14:50) 0 0 0 0 0
22-11-2017 21.5 (14:00) 6.4 (06:10) 14 5.28 (17:00) 3.06 (08:30) 0 0 0 0 0
21-11-2017 21 (12:00) 7.9 (23:40) 14.5 6.94 (16:00) 3.89 (15:50) 0 0 0 0 0
20-11-2017 21.5 (14:00) 6.4 (07:40) 14 7.22 (15:40) 3.33 (08:20) 0 0 0 0 0
19-11-2017 18.6 (14:20) 4.5 (00:00) 11.6 8.61 (14:00) 4.17 (15:40) 0 0 0 0 0
18-11-2017 18.8 (13:00) 5.4 (00:00) 12.1 9.17 (14:40) 5 (14:40) 0 0 0 0 0
17-11-2017 19.5 (13:30) 5.8 (00:00) 12.7 6.39 (16:10) 3.61 (16:00) 0 0 0 0 0
16-11-2017 19.5 (14:10) 4.9 (00:00) 12.2 6.39 (17:10) 3.33 (16:30) 0 0 0 0 0
15-11-2017 17.7 (14:20) 2.4 (00:00) 10.1 5 (17:00) 2.5 (21:20) 0 0 0 0 0
14-11-2017 18.7 (14:10) 4 (00:00) 11.4 7.78 (15:50) 3.33 (15:50) 0 0 0 0 0
13-11-2017 20.4 (12:40) 8.2 (00:00) 14.3 8.06 (14:40) 4.17 (16:00) 0 0 0 0 0
12-11-2017 22.5 (13:40) 8.5 (00:00) 15.5 8.06 (15:30) 3.33 (15:20) 0 0 0 0 0
11-11-2017 19.1 (14:20) 7.7 (00:00) 13.4 8.61 (13:20) 3.61 (10:20) 0 0 0 0 0
10-11-2017 17.1 (15:10) 4.6 (00:00) 10.9 7.78 (11:00) 3.33 (07:00) 0 0 0 0 0
09-11-2017 18 (14:00) 6.1 (00:00) 12 6.67 (07:50) 3.33 (07:50) 0 0 0 0 0
08-11-2017 21 (13:20) 7.2 (00:00) 14.1 5.83 (15:10) 2.78 (15:30) 0 0 0 0 0
07-11-2017 21.8 (14:40) 6.6 (00:00) 14.2 7.5 (03:40) 3.61 (06:10) 0 0 0 0 0
06-11-2017 18.6 (14:40) 8 (00:00) 13.3 6.94 (21:10) 3.33 (19:50) 0 0 0 0 0
05-11-2017 20.7 (13:50) 12.1 (00:00) 16.4 7.78 (13:40) 3.61 (15:50) 0.1 0 0.1 0 0
04-11-2017 17.4 (15:10) 10.8 (00:00) 14.1 7.5 (11:10) 2.78 (11:00) 2 0 1.9 0.1 0
03-11-2017 22.8 (12:30) 11.5 (00:00) 17.1 9.17 (14:00) 4.72 (14:00) 0 0 0 0 0
02-11-2017 21.8 (15:00) 9.4 (07:40) 15.6 10 (13:00) 5 (13:00) 0 0 0 0 0
01-11-2017 20.3 (14:00) 10.4 (00:00) 15.3 11.11 (14:50) 5.28 (14:30) 0 0 0 0 0
31-10-2017 20.7 (14:00) 9.6 (00:00) 15.2 8.89 (15:10) 4.44 (12:50) 0 0 0 0 0
30-10-2017 21.9 (14:30) 10.5 (00:00) 16.2 8.33 (15:50) 4.17 (15:50) 0 0 0 0 0
29-10-2017 22.3 (14:10) 9.5 (00:00) 15.9 10.83 (16:40) 3.61 (13:20) 0 0 0 0 0
28-10-2017 22.6 (15:00) 12.4 (00:00) 17.5 8.61 (13:20) 4.17 (13:10) 0 0 0 0 0
27-10-2017 27.7 (15:20) 11.2 (00:00) 19.5 7.5 (16:10) 3.61 (16:10) 0 0 0 0 0
26-10-2017 -- (--) -- (--) -- 9.72 (13:40) 4.72 (15:10) -- 0 -- 0 0
25-10-2017 24.6 (15:30) 10.6 (00:00) 17.6 11.11 (14:10) 6.11 (14:10) 0 0 0 0 0

Gráficas

Temp. máximas Temp. mínimas Temp. medias Precipitaciones Rachas de viento máximas Velocidades máximas media en intervalos de 10 minutos

Datos horarios

Fecha y hora oficial Temperatura (ºC) Velocidad del viento (km/h) Dirección del viento Racha (km/h) Dirección de racha Precipitación (mm) Presión (hPa) Tendencia (hPa) Humedad (%)
2017-11-23 23:00:00 11.8 7 Noroeste 12 Noroeste 0 -- -- 41
2017-11-23 22:00:00 12.7 0 Calma 9 Noroeste 0 -- -- 40
2017-11-23 21:00:00 13.4 2 Norte 8 Norte 0 -- -- 39
2017-11-23 20:00:00 13.8 3 Norte 9 Norte 0 -- -- 38
2017-11-23 19:00:00 14.6 3 Noroeste 12 Norte 0 -- -- 37
2017-11-23 18:00:00 15.8 2 Norte 16 Nordeste 0 -- -- 37
2017-11-23 17:00:00 17.5 8 Nordeste 23 Nordeste 0 -- -- 34
2017-11-23 16:00:00 20 10 Nordeste 28 Este 0 -- -- 30
2017-11-23 15:00:00 19.8 11 Nordeste 27 Nordeste 0 -- -- 28
2017-11-23 14:00:00 21.4 11 Nordeste 29 Nordeste 0 -- -- 27
2017-11-23 13:00:00 23.2 2 Norte 12 Noroeste 0 -- -- 26
2017-11-23 12:00:00 22.1 3 Norte 12 Noroeste 0 -- -- 27
2017-11-23 11:00:00 20.2 5 Norte 11 Norte 0 -- -- 31
2017-11-23 10:00:00 17.3 4 Noroeste 12 Noroeste 0 -- -- 35
2017-11-23 09:00:00 14.5 2 Norte 13 Norte 0 -- -- 36
2017-11-23 08:00:00 12.1 2 Norte 16 Norte 0 -- -- 36
2017-11-23 07:00:00 10.8 3 Norte 14 Noroeste 0 -- -- 36
2017-11-23 06:00:00 11.1 3 Norte 16 Norte 0 -- -- 35
2017-11-23 05:00:00 11.2 8 Norte 21 Noroeste 0 -- -- 35
2017-11-23 04:00:00 10.5 2 Noroeste 18 Oeste 0 -- -- 37
2017-11-23 03:00:00 9.1 12 Noroeste 17 Oeste 0 -- -- 38
2017-11-23 02:00:00 11.7 5 Noroeste 19 Noroeste 0 -- -- 35
2017-11-23 01:00:00 11.1 6 Norte 15 Norte 0 -- -- 35
2017-11-23 00:00:00 11.3 3 Norte 16 Noroeste 0 -- -- 37
2017-11-22 23:00:00 12.2 6 Norte 17 Norte 0 -- -- 37
2017-11-22 22:00:00 12.4 5 Noroeste 15 Oeste 0 -- -- 39
2017-11-22 21:00:00 12.4 3 Noroeste 12 Oeste 0 -- -- 42
2017-11-22 20:00:00 11.1 3 Noroeste 9 Noroeste 0 -- -- 43
2017-11-22 19:00:00 12.3 3 Noroeste 9 Noroeste 0 -- -- 38
2017-11-22 18:00:00 13.9 0 Calma 18 Este 0 -- -- 40
2017-11-22 17:00:00 16.5 6 Nordeste 19 Este 0 -- -- 33
2017-11-22 16:00:00 18.6 6 Este 14 Nordeste 0 -- -- 27
2017-11-22 15:00:00 19.5 7 Este 18 Este 0 -- -- 27
2017-11-22 14:00:00 20 2 Nordeste 12 Nordeste 0 -- -- 26
2017-11-22 13:00:00 19.4 3 Nordeste 12 Este 0 -- -- 28
2017-11-22 12:00:00 18.3 3 Nordeste 9 Nordeste 0 -- -- 31
2017-11-22 11:00:00 16.2 2 Nordeste 6 Este 0 -- -- 35
2017-11-22 10:00:00 11.6 3 Norte 5 Noroeste 0 -- -- 42
2017-11-22 09:00:00 10.2 0 Calma 17 Noroeste 0 -- -- 43
2017-11-22 08:00:00 8.6 2 Noroeste 10 Oeste 0 -- -- 42
2017-11-22 07:00:00 7.8 4 Noroeste 13 Noroeste 0 -- -- 44
2017-11-22 06:00:00 6.8 6 Noroeste 12 Noroeste 0 -- -- 45
2017-11-22 05:00:00 9 6 Oeste 10 Oeste 0 -- -- 46
2017-11-22 04:00:00 8.8 2 Noroeste 11 Noroeste 0 -- -- 49
2017-11-22 03:00:00 7.3 0 Calma 8 Noroeste 0 -- -- 53
2017-11-22 02:00:00 7.6 4 Noroeste 8 Noroeste 0 -- -- 53
2017-11-22 01:00:00 7.2 0 Calma 8 Norte 0 -- -- 51
2017-11-22 00:00:00 9.2 0 Calma 9 Noroeste 0 -- -- 49
2017-11-21 23:00:00 9.8 0 Calma 10 Oeste 0 -- -- 49
2017-11-21 22:00:00 9.3 0 Calma 10 Norte 0 -- -- 46
2017-11-21 21:00:00 11.4 0 Calma 11 Noroeste 0 -- -- 42
2017-11-21 20:00:00 11.9 2 Noroeste 13 Norte 0 -- -- 42
2017-11-21 19:00:00 12.7 4 Noroeste 14 Norte 0 -- -- 43
2017-11-21 18:00:00 14.6 4 Norte 19 Nordeste 0 -- -- 42
2017-11-21 17:00:00 16.8 9 Nordeste 22 Este 0 -- -- 37
2017-11-21 16:00:00 18.3 13 Nordeste 25 Nordeste 0 -- -- 33
2017-11-21 15:00:00 20 9 Este 19 Este 0 -- -- 30
2017-11-21 14:00:00 20.4 11 Nordeste 23 Nordeste 0 -- -- 29
2017-11-21 13:00:00 20.7 8 Nordeste 18 Este 0 -- -- 29
2017-11-21 12:00:00 20.1 6 Nordeste 15 Nordeste 0 -- -- 30
2017-11-21 11:00:00 19.1 0 Calma 6 Norte 0 -- -- 34
2017-11-21 10:00:00 16 4 Norte 9 Norte 0 -- -- 36
2017-11-21 09:00:00 13.6 5 Noroeste 17 Oeste 0 -- -- 38
2017-11-21 08:00:00 11.7 4 Noroeste 13 Oeste 0 -- -- 40
2017-11-21 07:00:00 11.4 3 Noroeste 16 Oeste 0 -- -- 41
2017-11-21 06:00:00 9.5 6 Noroeste 15 Oeste 0 -- -- 42
2017-11-21 05:00:00 11.4 3 Noroeste 15 Oeste 0 -- -- 41
2017-11-21 04:00:00 9.3 0 Calma 11 Noroeste 0 -- -- 45
2017-11-21 03:00:00 9.3 6 Oeste 13 Noroeste 0 -- -- 44
2017-11-21 02:00:00 10 0 Calma 13 Oeste 0 -- -- 45
2017-11-21 01:00:00 11.8 6 Noroeste 13 Oeste 0 -- -- 40
2017-11-21 00:00:00 11.2 4 Noroeste 17 Oeste 0 -- -- 41
2017-11-20 23:00:00 11.5 8 Oeste 13 Oeste 0 -- -- 43
2017-11-20 22:00:00 10.4 0 Calma 8 Noroeste 0 -- -- 43
2017-11-20 21:00:00 11 0 Calma 8 Norte 0 -- -- 41
2017-11-20 20:00:00 11.5 3 Noroeste 13 Norte 0 -- -- 40
2017-11-20 19:00:00 12.8 3 Noroeste 10 Noroeste 0 -- -- 39
2017-11-20 18:00:00 14.5 2 Norte 12 Este 0 -- -- 38
2017-11-20 17:00:00 16.7 6 Nordeste 19 Este 0 -- -- 35
2017-11-20 16:00:00 18.9 9 Nordeste 26 Nordeste 0 -- -- 33
2017-11-20 15:00:00 19.9 9 Nordeste 17 Este 0 -- -- 30
2017-11-20 14:00:00 21.5 6 Nordeste 15 Nordeste 0 -- -- 30
2017-11-20 13:00:00 20.4 6 Nordeste 14 Nordeste 0 -- -- 31
2017-11-20 12:00:00 18.7 6 Nordeste 14 Este 0 -- -- 34
2017-11-20 11:00:00 16.6 3 Nordeste 7 Nordeste 0 -- -- 38
2017-11-20 10:00:00 14.4 2 Norte -- -- -- -- -- 44
2017-11-20 09:00:00 11.9 4 Noroeste 16 Oeste 0 -- -- 45
2017-11-20 08:00:00 9.5 4 Noroeste 13 Noroeste 0 -- -- 49
2017-11-20 07:00:00 8.3 9 Noroeste 15 Oeste 0 -- -- 54
2017-11-20 06:00:00 7 0 Calma 10 Noroeste 0 -- -- 56
2017-11-20 05:00:00 9 4 Noroeste 11 Noroeste 0 -- -- 53
2017-11-20 04:00:00 8.4 0 Calma 13 Oeste 0 -- -- 55
2017-11-20 03:00:00 10 3 Noroeste 14 Oeste 0 -- -- 52
2017-11-20 02:00:00 9.9 0 Calma 14 Noroeste 0 -- -- 53
2017-11-20 01:00:00 9.7 2 Noroeste 12 Oeste 0 -- -- 54
2017-11-20 00:00:00 8.8 8 Noroeste 11 Noroeste 0 -- -- 59
2017-11-19 23:00:00 10 0 Calma 10 Oeste 0 -- -- 60
2017-11-19 22:00:00 10.4 0 Calma 10 Noroeste 0 -- -- 56
2017-11-19 21:00:00 10.8 2 Norte 9 Noroeste 0 -- -- 54
2017-11-19 20:00:00 11.7 3 Norte 12 Norte 0 -- -- 51
2017-11-19 19:00:00 12.7 3 Noroeste 10 Norte 0 -- -- 53
2017-11-19 18:00:00 13.7 5 Nordeste 21 Este 0 -- -- 57
2017-11-19 17:00:00 15.7 11 Este 26 Este 0 -- -- 48
2017-11-19 16:00:00 17.7 12 Nordeste 29 Este 0 -- -- 37
2017-11-19 15:00:00 18.1 13 Nordeste 27 Nordeste 0 -- -- 35
2017-11-19 14:00:00 18.5 13 Nordeste 31 Nordeste 0 -- -- 36
2017-11-19 13:00:00 17.1 14 Este 28 Nordeste 0 -- -- 37
2017-11-19 12:00:00 16.9 13 Nordeste 25 Este 0 -- -- 38
2017-11-19 11:00:00 15.3 7 Este 14 Nordeste 0 -- -- 42
2017-11-19 10:00:00 14.7 0 Calma 5 Nordeste 0 -- -- 47
2017-11-19 09:00:00 9.4 0 Calma 6 Noroeste 0 -- -- 55
2017-11-19 08:00:00 6.2 0 Calma 9 Oeste 0 -- -- 64
2017-11-19 07:00:00 5.3 0 Calma 3 Noroeste 0 -- -- 67
2017-11-19 06:00:00 5.9 0 Calma 8 Noroeste 0 -- -- 64
2017-11-19 05:00:00 5.8 0 Calma 2 Noroeste 0 -- -- 64
2017-11-19 04:00:00 6.3 0 Calma 3 Oeste 0 -- -- 66
2017-11-19 03:00:00 5.9 0 Calma 3 Este 0 -- -- 67
2017-11-19 02:00:00 6.5 0 Calma 9 Noroeste 0 -- -- 65
2017-11-19 01:00:00 6.9 0 Calma 9 Noroeste 0 -- -- 65
2017-11-19 00:00:00 8.2 4 Noroeste 8 Noroeste 0 -- -- 65
2017-11-18 23:00:00 8.6 0 Calma 8 Noroeste 0 -- -- 63
2017-11-18 22:00:00 9.6 0 Calma 9 Oeste 0 -- -- 59
2017-11-18 21:00:00 11.1 3 Noroeste 12 Norte 0 -- -- 54
2017-11-18 20:00:00 11.6 4 Noroeste 11 Noroeste 0 -- -- 50
2017-11-18 19:00:00 12.1 4 Norte 14 Nordeste 0 -- -- 64
2017-11-18 18:00:00 13.1 5 Nordeste 19 Este 0 -- -- 53
2017-11-18 17:00:00 15.5 10 Nordeste 25 Este 0 -- -- 44
2017-11-18 16:00:00 17.1 13 Nordeste 28 Este 0 -- -- 38
2017-11-18 15:00:00 18.1 13 Nordeste 33 Este 0 -- -- 35
2017-11-18 14:00:00 18.2 15 Nordeste 30 Este 0 -- -- 34
2017-11-18 13:00:00 18.5 12 Nordeste 26 Este 0 -- -- 31
2017-11-18 12:00:00 17.6 10 Este 20 Este 0 -- -- 40
2017-11-18 11:00:00 16 2 Nordeste 7 Noroeste 0 -- -- 46
2017-11-18 10:00:00 13.9 3 Norte 8 Norte 0 -- -- 47
2017-11-18 09:00:00 9.7 0 Calma 3 Norte 0 -- -- 57
2017-11-18 08:00:00 5.8 0 Calma 2 Nordeste 0 -- -- 64
2017-11-18 07:00:00 5.8 0 Calma 4 Oeste 0 -- -- 63
2017-11-18 06:00:00 7.4 2 Noroeste 10 Noroeste 0 -- -- 57
2017-11-18 05:00:00 6.9 0 Calma 10 Noroeste 0 -- -- 59
2017-11-18 04:00:00 8.6 3 Noroeste 13 Noroeste 0 -- -- 56
2017-11-18 03:00:00 8.8 4 Noroeste 9 Oeste 0 -- -- 55
2017-11-18 02:00:00 8.9 6 Oeste 13 Noroeste 0 -- -- 58
2017-11-18 01:00:00 9.5 0 Calma 12 Noroeste 0 -- -- 56
2017-11-18 00:00:00 8.5 0 Calma 6 Oeste 0 -- -- 61
2017-11-17 23:00:00 9.3 0 Calma 6 Norte 0 -- -- 60
2017-11-17 22:00:00 9.8 3 Oeste 7 Oeste 0 -- -- 68
2017-11-17 21:00:00 9.5 2 Oeste 7 Noroeste 0 -- -- 64
2017-11-17 20:00:00 10.7 2 Noroeste 7 Noroeste 0 -- -- 53
2017-11-17 19:00:00 11.4 3 Nordeste 9 Nordeste 0 -- -- 58
2017-11-17 18:00:00 13.2 4 Nordeste 21 Nordeste 0 -- -- 49
2017-11-17 17:00:00 15.2 8 Nordeste 23 Este 0 -- -- 46
2017-11-17 16:00:00 16.8 13 Nordeste 22 Nordeste 0 -- -- 42
2017-11-17 15:00:00 17.9 9 Nordeste 21 Nordeste 0 -- -- 37
2017-11-17 14:00:00 18.5 9 Este 18 Este 0 -- -- 35
2017-11-17 13:00:00 18.3 7 Nordeste 16 Este 0 -- -- 37
2017-11-17 12:00:00 16.9 6 Nordeste 16 Nordeste 0 -- -- 38
2017-11-17 11:00:00 14.7 4 Nordeste 10 Este 0 -- -- 40
2017-11-17 10:00:00 13.2 0 Calma 5 Nordeste 0 -- -- 46
2017-11-17 09:00:00 9.3 2 Noroeste 12 Noroeste 0 -- -- 53
2017-11-17 08:00:00 6.9 0 Calma 13 Noroeste 0 -- -- 56
2017-11-17 07:00:00 6.9 5 Noroeste 12 Noroeste 0 -- -- 56
2017-11-17 06:00:00 7.5 2 Noroeste 10 Norte 0 -- -- 58
2017-11-17 05:00:00 7.5 5 Noroeste 14 Oeste 0 -- -- 58
2017-11-17 04:00:00 7.5 0 Calma 10 Noroeste 0 -- -- 59
2017-11-17 03:00:00 6.8 0 Calma 13 Noroeste 0 -- -- 61
2017-11-17 02:00:00 7.4 0 Calma 12 Oeste 0 -- -- 62
2017-11-17 01:00:00 7.9 5 Noroeste 10 Oeste 0 -- -- 62
2017-11-17 00:00:00 8.2 0 Calma 10 Oeste 0 -- -- 63
2017-11-16 23:00:00 7.7 0 Calma 9 Oeste 0 -- -- 60
2017-11-16 22:00:00 8.7 4 Oeste 9 Oeste 0 -- -- 62
2017-11-16 21:00:00 9.7 0 Calma 10 Norte 0 -- -- 55
2017-11-16 20:00:00 10.5 2 Norte 7 Norte 0 -- -- 53
2017-11-16 19:00:00 11 0 Calma 8 Este 0 -- -- 56
2017-11-16 18:00:00 12.9 5 Nordeste 23 Nordeste 0 -- -- 50
2017-11-16 17:00:00 14.8 11 Nordeste 22 Nordeste 0 -- -- 41
2017-11-16 16:00:00 16.9 10 Nordeste 21 Nordeste 0 -- -- 37
2017-11-16 15:00:00 18.3 8 Nordeste 20 Nordeste 0 -- -- 31
2017-11-16 14:00:00 18.8 8 Nordeste 19 Este 0 -- -- 29
2017-11-16 13:00:00 18.6 7 Nordeste 16 Nordeste 0 -- -- 29
2017-11-16 12:00:00 17.9 6 Este 15 Este 0 -- -- 31
2017-11-16 11:00:00 16.2 2 Norte 6 Nordeste 0 -- -- 35
2017-11-16 10:00:00 13.6 2 Nordeste 9 Norte 0 -- -- 42
2017-11-16 09:00:00 11.2 0 Calma 8 Oeste 0 -- -- 48
2017-11-16 08:00:00 6.3 0 Calma 6 Noroeste 0 -- -- 56
2017-11-16 07:00:00 5.6 0 Calma 6 Oeste 0 -- -- 59
2017-11-16 06:00:00 5.6 0 Calma 10 Nordeste 0 -- -- 57
2017-11-16 05:00:00 5.9 0 Calma 4 Noroeste 0 -- -- 57
2017-11-16 04:00:00 6.3 0 Calma 11 Oeste 0 -- -- 54
2017-11-16 03:00:00 7.2 0 Calma 11 Noroeste 0 -- -- 53
2017-11-16 02:00:00 8 0 Calma 9 Oeste 0 -- -- 51
2017-11-16 01:00:00 8 3 Noroeste 13 Oeste 0 -- -- 51
2017-11-16 00:00:00 7.8 5 Noroeste 10 Noroeste 0 -- -- 52
2017-11-15 23:00:00 8.9 3 Noroeste 13 Noroeste 0 -- -- 51
2017-11-15 22:00:00 10.1 4 Noroeste 13 Noroeste 0 -- -- 50
2017-11-15 21:00:00 9.2 0 Calma 5 Norte 0 -- -- 64
2017-11-15 20:00:00 9.5 0 Calma 9 Norte 0 -- -- 65
2017-11-15 19:00:00 10.6 0 Calma 7 Este 0 -- -- 64
2017-11-15 18:00:00 12 2 Nordeste 13 Este 0 -- -- 58
2017-11-15 17:00:00 14 8 Nordeste 18 Nordeste 0 -- -- 53
2017-11-15 16:00:00 16.2 8 Nordeste 15 Este 0 -- -- 42
2017-11-15 15:00:00 17.2 6 Nordeste 16 Nordeste 0 -- -- 40
2017-11-15 14:00:00 16.7 6 Nordeste 13 Este 0 -- -- 40
2017-11-15 13:00:00 16 4 Nordeste 15 Nordeste 0 -- -- 43
2017-11-15 12:00:00 14.3 4 Nordeste 12 Este 0 -- -- 46
2017-11-15 11:00:00 11.7 5 Norte 11 Nordeste 0 -- -- 59
2017-11-15 10:00:00 9.9 0 Calma 4 Este 0 -- -- 54
2017-11-15 09:00:00 5.9 0 Calma 4 Norte 0 -- -- 64
2017-11-15 08:00:00 3.1 0 Calma 4 Este 0 -- -- 69
2017-11-15 07:00:00 3.5 0 Calma 8 Noroeste 0 -- -- 66
2017-11-15 06:00:00 4.7 0 Calma 12 Sudoeste 0 -- -- 56
2017-11-15 05:00:00 5.1 0 Calma 10 Sur 0 -- -- 56
2017-11-15 04:00:00 5.1 2 Sudoeste 10 Sudoeste 0 -- -- 63
2017-11-15 03:00:00 5.5 3 Sudoeste 12 Sudoeste 0 -- -- 67
2017-11-15 02:00:00 5 3 Sur 13 Sudoeste 0 -- -- 82
2017-11-15 01:00:00 5.2 2 Nordeste 8 Norte 0 -- -- 81
2017-11-15 00:00:00 6.2 2 Norte 10 Noroeste 0 -- -- 73
2017-11-14 23:00:00 6.3 2 Noroeste 10 Norte 0 -- -- 68
2017-11-14 22:00:00 6.9 2 Noroeste 8 Oeste 0 -- -- 66
2017-11-14 21:00:00 7.4 3 Noroeste 8 Norte 0 -- -- 63
2017-11-14 20:00:00 8.3 2 Norte 6 Norte 0 -- -- 62
2017-11-14 19:00:00 9.3 3 Nordeste 11 Este 0 -- -- 64
2017-11-14 18:00:00 10.5 7 Nordeste 20 Este 0 -- -- 56
2017-11-14 17:00:00 12.6 10 Nordeste 24 Este 0 -- -- 47
2017-11-14 16:00:00 14.2 11 Nordeste 28 Nordeste 0 -- -- 43
2017-11-14 15:00:00 16.1 8 Nordeste 20 Este 0 -- -- 33
2017-11-14 14:00:00 16.9 2 Norte 13 Nordeste 0 -- -- 29
2017-11-14 13:00:00 14.8 4 Nordeste 10 Nordeste 0 -- -- 35
2017-11-14 12:00:00 13.5 3 Noroeste 10 Norte 0 -- -- 38
2017-11-14 11:00:00 10.8 3 Noroeste 12 Sur 0 -- -- 43
2017-11-14 10:00:00 9.1 2 Sudoeste 14 Norte 0 -- -- 46
2017-11-14 09:00:00 6.7 4 Sudoeste 15 Norte 0 -- -- 50
2017-11-14 08:00:00 4.2 0 Calma 15 Sudoeste 0 -- -- 52
2017-11-14 07:00:00 5.8 0 Calma 21 Sur 0 -- -- 50
2017-11-14 06:00:00 6 3 Sudoeste 22 Sur 0 -- -- 49
2017-11-14 05:00:00 6.9 0 Calma 20 Sur 0 -- -- 47
2017-11-14 04:00:00 7.5 4 Sudoeste 23 Noroeste 0 -- -- 48
2017-11-14 03:00:00 8.1 4 Noroeste 20 Noroeste 0 -- -- 47
2017-11-14 02:00:00 8.5 3 Oeste 22 Norte 0 -- -- 48
2017-11-14 01:00:00 8.3 4 Noroeste 19 Noroeste 0 -- -- 48
2017-11-14 00:00:00 8.3 7 Noroeste 22 Noroeste 0 -- -- 48
2017-11-13 23:00:00 8.8 5 Noroeste 18 Norte 0 -- -- 48
2017-11-13 22:00:00 9.3 6 Noroeste 19 Norte 0 -- -- 47
2017-11-13 21:00:00 11 7 Noroeste 21 Norte 0 -- -- 46
2017-11-13 20:00:00 11.9 7 Norte 24 Noroeste 0 -- -- 46
2017-11-13 19:00:00 12.5 9 Noroeste 24 Noroeste 0 -- -- 47
2017-11-13 18:00:00 13.7 12 Noroeste 27 Noroeste 0 -- -- 43
2017-11-13 17:00:00 15.7 14 Noroeste 29 Noroeste 0 -- -- 35
2017-11-13 16:00:00 17.6 15 Noroeste 28 Noroeste 0 -- -- 33
2017-11-13 15:00:00 19.4 13 Noroeste 29 Noroeste 0 -- -- 34
2017-11-13 14:00:00 19.6 12 Noroeste 26 Norte 0 -- -- 31
2017-11-13 13:00:00 20 10 Noroeste 21 Norte 0 -- -- 31
2017-11-13 12:00:00 19.5 8 Noroeste 27 Noroeste 0 -- -- 32
2017-11-13 11:00:00 17.7 10 Noroeste 24 Sudoeste 0 -- -- 37
2017-11-13 10:00:00 16.3 5 Noroeste 18 Noroeste 0 -- -- 42
2017-11-13 09:00:00 12.3 10 Noroeste 23 Norte 0 -- -- 47
2017-11-13 08:00:00 9.4 8 Noroeste 19 Norte 0 -- -- 49
2017-11-13 07:00:00 10.9 8 Noroeste 20 Noroeste 0 -- -- 47
2017-11-13 06:00:00 9.3 8 Noroeste 23 Noroeste 0 -- -- 46
2017-11-13 05:00:00 10.4 10 Noroeste 23 Norte 0 -- -- 44
2017-11-13 04:00:00 10.4 10 Norte 26 Noroeste 0 -- -- 44
2017-11-13 03:00:00 10.7 8 Noroeste 19 Noroeste 0 -- -- 42
2017-11-13 02:00:00 11.9 10 Noroeste 22 Noroeste 0 -- -- 42
2017-11-13 01:00:00 11.7 8 Noroeste 21 Noroeste 0 -- -- 42
2017-11-13 00:00:00 11.5 9 Noroeste 21 Noroeste 0 -- -- 41
2017-11-12 23:00:00 12.9 9 Norte 24 Norte 0 -- -- 40
2017-11-12 22:00:00 12.6 9 Noroeste 23 Noroeste 0 -- -- 40
2017-11-12 21:00:00 14.2 3 Norte 20 Noroeste 0 -- -- 36
2017-11-12 20:00:00 15 5 Norte 20 Noroeste 0 -- -- 35
2017-11-12 19:00:00 15.9 5 Norte 23 Noroeste 0 -- -- 31
2017-11-12 18:00:00 17 4 Norte 17 Noroeste 0 -- -- 29
2017-11-12 17:00:00 18.8 8 Noroeste 21 Noroeste 0 -- -- 27
2017-11-12 16:00:00 21.1 11 Noroeste 29 Noroeste 0 -- -- 27
2017-11-12 15:00:00 21.4 9 Noroeste 26 Noroeste 0 -- -- 26
2017-11-12 14:00:00 22.1 8 Norte 22 Norte 0 -- -- 26
2017-11-12 13:00:00 20.7 8 Norte 23 Noroeste 0 -- -- 30
2017-11-12 12:00:00 20.2 7 Noroeste 18 Noroeste 0 -- -- 31
2017-11-12 11:00:00 18.4 3 Norte 19 Norte 0 -- -- 40
2017-11-12 10:00:00 15.3 8 Norte 21 Noroeste 0 -- -- 45
2017-11-12 09:00:00 12.3 10 Noroeste 23 Noroeste 0 -- -- 49
2017-11-12 08:00:00 9.8 8 Noroeste 21 Noroeste 0 -- -- 53
2017-11-12 07:00:00 9.5 5 Noroeste 21 Este 0 -- -- 55
2017-11-12 06:00:00 9.1 5 Noroeste 21 Noroeste 0 -- -- 53
2017-11-12 05:00:00 9.2 5 Norte 23 Norte 0 -- -- 55
2017-11-12 04:00:00 9.2 6 Noroeste 17 Norte 0 -- -- 57
2017-11-12 03:00:00 10.1 7 Norte 19 Noroeste 0 -- -- 53
2017-11-12 02:00:00 9.9 8 Noroeste 19 Noroeste 0 -- -- 56
2017-11-12 01:00:00 10.3 7 Noroeste 22 Norte 0 -- -- 56
2017-11-12 00:00:00 10.8 11 Noroeste 21 Norte 0 -- -- 55
2017-11-11 23:00:00 10.9 8 Noroeste 21 Noroeste 0 -- -- 56
2017-11-11 22:00:00 10.8 6 Norte 16 Noroeste 0 -- -- 56
2017-11-11 21:00:00 11.4 8 Noroeste 18 Noroeste 0 -- -- 55
2017-11-11 20:00:00 12.2 8 Noroeste 18 Norte 0 -- -- 52
2017-11-11 19:00:00 13.2 8 Noroeste 15 Norte 0 -- -- 49
2017-11-11 18:00:00 14.4 6 Noroeste 16 Noroeste 0 -- -- 45
2017-11-11 17:00:00 16.5 8 Noroeste 23 Noroeste 0 -- -- 40
2017-11-11 16:00:00 17.8 11 Noroeste 25 Noroeste 0 -- -- 39
2017-11-11 15:00:00 19 11 Noroeste 28 Norte 0 -- -- 38
2017-11-11 14:00:00 18.7 9 Norte 31 Norte 0 -- -- 39
2017-11-11 13:00:00 17.2 10 Noroeste 24 Noroeste 0 -- -- 41
2017-11-11 12:00:00 16.7 11 Noroeste 23 Norte 0 -- -- 42
2017-11-11 11:00:00 15.3 10 Noroeste 25 Noroeste 0 -- -- 48
2017-11-11 10:00:00 12.7 10 Norte 24 Norte 0 -- -- 56
2017-11-11 09:00:00 10.3 9 Noroeste 27 Norte 0 -- -- 64
2017-11-11 08:00:00 7.8 8 Noroeste 21 Noroeste 0 -- -- 70
2017-11-11 07:00:00 8.1 6 Noroeste 19 Sudoeste 0 -- -- 65
2017-11-11 06:00:00 9.2 4 Noroeste 19 Norte 0 -- -- 62
2017-11-11 05:00:00 8.5 6 Noroeste 23 Noroeste 0 -- -- 60
2017-11-11 04:00:00 8 8 Noroeste 21 Noroeste 0 -- -- 60
2017-11-11 03:00:00 7.7 7 Noroeste 20 Noroeste 0 -- -- 57
2017-11-11 02:00:00 8.2 8 Noroeste 20 Noroeste 0 -- -- 55
2017-11-11 01:00:00 7.9 10 Noroeste 22 Noroeste 0 -- -- 54
2017-11-11 00:00:00 8.7 9 Noroeste 18 Noroeste 0 -- -- 53
2017-11-10 23:00:00 8.4 6 Norte 17 Norte 0 -- -- 51
2017-11-10 22:00:00 8.3 7 Noroeste 16 Noroeste 0 -- -- 51
2017-11-10 21:00:00 8.7 7 Noroeste 15 Norte 0 -- -- 48
2017-11-10 20:00:00 9.3 0 Calma 11 Noroeste 0 -- -- 46
2017-11-10 19:00:00 10.6 5 Noroeste 12 Norte 0 -- -- 44
2017-11-10 18:00:00 11.6 5 Norte 16 Norte 0 -- -- 41
2017-11-10 17:00:00 13.4 5 Norte 14 Norte 0 -- -- 37
2017-11-10 16:00:00 15 7 Norte 17 Noroeste 0 -- -- 34
2017-11-10 15:00:00 16.1 8 Noroeste 19 Noroeste 0 -- -- 34
2017-11-10 14:00:00 16.3 6 Norte 18 Norte 0 -- -- 32
2017-11-10 13:00:00 15.9 8 Noroeste 21 Noroeste 0 -- -- 35
2017-11-10 12:00:00 14 8 Norte 23 Norte 0 -- -- 41
2017-11-10 11:00:00 11.4 9 Noroeste 28 Noroeste 0 -- -- 49
2017-11-10 10:00:00 8.7 9 Noroeste 20 Noroeste 0 -- -- 55
2017-11-10 09:00:00 7.4 8 Noroeste 22 Sur 0 -- -- 59
2017-11-10 08:00:00 5.2 9 Sur 24 Norte 0 -- -- 64
2017-11-10 07:00:00 5.2 12 Noroeste 26 Noroeste 0 -- -- 65
2017-11-10 06:00:00 4.7 8 Norte 21 Noroeste 0 -- -- 65
2017-11-10 05:00:00 5.3 8 Noroeste 15 Noroeste 0 -- -- 63
2017-11-10 04:00:00 5.5 7 Norte 15 Noroeste 0 -- -- 62
2017-11-10 03:00:00 6.1 4 Noroeste 16 Noroeste 0 -- -- 59
2017-11-10 02:00:00 5.8 4 Noroeste 18 Norte 0 -- -- 59
2017-11-10 01:00:00 6.3 10 Noroeste 20 Norte 0 -- -- 57
2017-11-10 00:00:00 6.7 6 Noroeste 17 Norte 0 -- -- 53
2017-11-09 23:00:00 8.5 6 Noroeste 17 Oeste 0 -- -- 49
2017-11-09 22:00:00 9.1 3 Noroeste 15 Nordeste 0 -- -- 47
2017-11-09 21:00:00 9.2 7 Noroeste 15 Noroeste 0 -- -- 46
2017-11-09 20:00:00 9.8 5 Norte 15 Noroeste 0 -- -- 44
2017-11-09 19:00:00 10 2 Nordeste 7 Noroeste 0 -- -- 44
2017-11-09 18:00:00 11.1 3 Nordeste 19 Este 0 -- -- 39
2017-11-09 17:00:00 13 11 Este 20 Este 0 -- -- 33
2017-11-09 16:00:00 16.4 3 Norte 19 Noroeste 0 -- -- 27
2017-11-09 15:00:00 17.1 6 Norte 19 Noroeste 0 -- -- 27
2017-11-09 14:00:00 17.6 5 Norte 15 Norte 0 -- -- 27
2017-11-09 13:00:00 15.8 7 Norte 18 Noroeste 0 -- -- 30
2017-11-09 12:00:00 15.5 7 Norte 18 Noroeste 0 -- -- 34
2017-11-09 11:00:00 14.8 3 Nordeste 16 Nordeste 0 -- -- 42
2017-11-09 10:00:00 11.9 8 Norte 15 Norte 0 -- -- 49
2017-11-09 09:00:00 9.7 7 Noroeste 19 Sudoeste 0 -- -- 53
2017-11-09 08:00:00 6.2 10 Sur 24 Sur 0 -- -- 61
2017-11-09 07:00:00 6.4 9 Noroeste 18 Sur 0 -- -- 61
2017-11-09 06:00:00 7.5 3 Noroeste 17 Sur 0 -- -- 56
2017-11-09 05:00:00 8.9 5 Norte 15 Sudoeste 0 -- -- 55
2017-11-09 04:00:00 10.1 3 Sudoeste 17 Norte 0 -- -- 57
2017-11-09 03:00:00 9 7 Sur 15 Sur 0 -- -- 61
2017-11-09 02:00:00 8.8 9 Sur 18 Sur 0 -- -- 60
2017-11-09 01:00:00 9.2 9 Sur 18 Sur 0 -- -- 59
2017-11-09 00:00:00 9.5 7 Sur 14 Sur 0 -- -- 56
2017-11-08 23:00:00 10.8 3 Sudoeste 14 Noroeste 0 -- -- 53
2017-11-08 22:00:00 11 6 Noroeste 15 Noroeste 0 -- -- 52
2017-11-08 21:00:00 11.5 5 Noroeste 11 Sudoeste 0 -- -- 52
2017-11-08 20:00:00 11.4 3 Norte 8 Norte 0 -- -- 53
2017-11-08 19:00:00 12.2 0 Calma 16 Este 0 -- -- 49
2017-11-08 18:00:00 13.9 8 Nordeste 18 Este 0 -- -- 44
2017-11-08 17:00:00 15.8 6 Nordeste 20 Este 0 -- -- 36
2017-11-08 16:00:00 17.6 9 Este 21 Este 0 -- -- 31
2017-11-08 15:00:00 19.8 8 Nordeste 17 Nordeste 0 -- -- 28
2017-11-08 14:00:00 19.9 6 Nordeste 15 Este 0 -- -- 27
2017-11-08 13:00:00 19.2 5 Norte 14 Este 0 -- -- 29
2017-11-08 12:00:00 17.9 7 Nordeste 17 Este 0 -- -- 31
2017-11-08 11:00:00 17.3 2 Nordeste 9 Nordeste 0 -- -- 32
2017-11-08 10:00:00 15.2 2 Norte 10 Norte 0 -- -- 34
2017-11-08 09:00:00 11.8 6 Noroeste 12 Oeste 0 -- -- 37
2017-11-08 08:00:00 9 4 Noroeste 12 Norte 0 -- -- 39
2017-11-08 07:00:00 9 2 Noroeste 11 Norte 0 -- -- 39
2017-11-08 06:00:00 9.1 3 Noroeste 14 Noroeste 0 -- -- 39
2017-11-08 05:00:00 8.8 4 Noroeste 16 Noroeste 0 -- -- 40
2017-11-08 04:00:00 9 5 Noroeste 18 Sudoeste 0 -- -- 39
2017-11-08 03:00:00 9.1 5 Noroeste 18 Noroeste 0 -- -- 38
2017-11-08 02:00:00 8.7 8 Noroeste 19 Oeste 0 -- -- 39
2017-11-08 01:00:00 9 8 Noroeste 15 Oeste 0 -- -- 36
2017-11-08 00:00:00 10.1 4 Noroeste 16 Oeste 0 -- -- 36
2017-11-07 23:00:00 9.6 7 Oeste 17 Noroeste 0 -- -- 35
2017-11-07 22:00:00 11.2 8 Noroeste 14 Noroeste 0 -- -- 32
2017-11-07 21:00:00 12.3 4 Noroeste 20 Norte 0 -- -- 29
2017-11-07 20:00:00 12.6 8 Noroeste 20 Norte 0 -- -- 27
2017-11-07 19:00:00 14.2 7 Noroeste 19 Noroeste 0 -- -- 24
2017-11-07 18:00:00 15.3 5 Norte 22 Norte 0 -- -- 22
2017-11-07 17:00:00 17.3 12 Noroeste 25 Norte 0 -- -- 21
2017-11-07 16:00:00 19.6 9 Noroeste 20 Norte 0 -- -- 19
2017-11-07 15:00:00 21.3 6 Norte 20 Oeste 0 -- -- 18
2017-11-07 14:00:00 20.4 7 Norte 22 Noroeste 0 -- -- 18
2017-11-07 13:00:00 20 8 Norte 21 Norte 0 -- -- 18
2017-11-07 12:00:00 18.1 9 Norte 19 Noroeste 0 -- -- 21
2017-11-07 11:00:00 15.7 6 Norte 18 Norte 0 -- -- 29
2017-11-07 10:00:00 13.3 9 Noroeste 21 Noroeste 0 -- -- 38
2017-11-07 09:00:00 10.6 9 Noroeste 22 Noroeste 0 -- -- 44
2017-11-07 08:00:00 7.7 9 Noroeste 21 Noroeste 0 -- -- 51
2017-11-07 07:00:00 6.6 5 Noroeste 26 Noroeste 0 -- -- 53
2017-11-07 06:00:00 7.1 13 Noroeste 26 Oeste 0 -- -- 53
2017-11-07 05:00:00 7.7 13 Noroeste 25 Noroeste 0 -- -- 53
2017-11-07 04:00:00 7.4 9 Norte 27 Noroeste 0 -- -- 55
2017-11-07 03:00:00 7.5 10 Noroeste 19 Noroeste 0 -- -- 55
2017-11-07 02:00:00 8.1 9 Noroeste 22 Noroeste 0 -- -- 53
2017-11-07 01:00:00 8.3 9 Noroeste 17 Noroeste 0 -- -- 55
2017-11-07 00:00:00 8.6 5 Norte 16 Noroeste 0 -- -- 52
2017-11-06 23:00:00 10.3 7 Noroeste 21 Noroeste 0 -- -- 48
2017-11-06 22:00:00 10.5 10 Noroeste 25 Noroeste 0 -- -- 48
2017-11-06 21:00:00 10.9 9 Noroeste 24 Norte 0 -- -- 47
2017-11-06 20:00:00 11.2 11 Noroeste 22 Noroeste 0 -- -- 46
2017-11-06 19:00:00 11.9 5 Noroeste 15 Noroeste 0 -- -- 42
2017-11-06 18:00:00 13.2 4 Noroeste 19 Norte 0 -- -- 37
2017-11-06 17:00:00 15.2 7 Norte 23 Noroeste 0 -- -- 32
2017-11-06 16:00:00 17 8 Norte 24 Noroeste 0 -- -- 30
2017-11-06 15:00:00 18.2 9 Norte 24 Noroeste 0 -- -- 30
2017-11-06 14:00:00 17.8 8 Norte 23 Norte 0 -- -- 33
2017-11-06 13:00:00 17.7 8 Norte 22 Norte 0 -- -- 37
2017-11-06 12:00:00 16.6 8 Noroeste 19 Norte 0 -- -- 40
2017-11-06 11:00:00 14.7 9 Norte 22 Norte 0 -- -- 44
2017-11-06 10:00:00 13.3 9 Noroeste 24 Noroeste 0 -- -- 48
2017-11-06 09:00:00 10.7 9 Noroeste 19 Norte 0 -- -- 60
2017-11-06 08:00:00 8.2 7 Noroeste 17 Sudoeste 0 -- -- 69
2017-11-06 07:00:00 9.5 6 Sur 22 Sudoeste 0 -- -- 64
2017-11-06 06:00:00 9.3 3 Sudoeste 15 Sudoeste 0 -- -- 70
2017-11-06 05:00:00 9.5 3 Sudoeste 12 Sur 0 -- -- 73
2017-11-06 04:00:00 9.5 4 Sudoeste 13 Sudoeste 0 -- -- 75
2017-11-06 03:00:00 10.7 5 Sudoeste 18 Sudoeste 0 -- -- 74
2017-11-06 02:00:00 11.4 3 Sudoeste 17 Sudoeste 0 -- -- 73
2017-11-06 01:00:00 11.9 4 Sudoeste 12 Sur 0 -- -- 71
2017-11-06 00:00:00 13.2 5 Sudoeste 17 Sur 0 -- -- 60
2017-11-05 23:00:00 13.2 4 Sudoeste 17 Norte 0 -- -- 63
2017-11-05 22:00:00 13.5 5 Noroeste 16 Norte 0 -- -- 60
2017-11-05 21:00:00 13.8 6 Norte 21 Norte 0 -- -- 56
2017-11-05 20:00:00 14.5 6 Noroeste 20 Noroeste 0 -- -- 53
2017-11-05 19:00:00 14.9 6 Norte 20 Noroeste 0 -- -- 49
2017-11-05 18:00:00 15.7 5 Norte 20 Noroeste 0 -- -- 45
2017-11-05 17:00:00 16.6 8 Noroeste 21 Noroeste 0 -- -- 42
2017-11-05 16:00:00 18 10 Noroeste 27 Noroeste 0 -- -- 40
2017-11-05 15:00:00 19.2 8 Noroeste 23 Norte 0 -- -- 40
2017-11-05 14:00:00 19.1 5 Noroeste 28 Norte 0 -- -- 41
2017-11-05 13:00:00 19.1 6 Noroeste 21 Noroeste 0 -- -- 43
2017-11-05 12:00:00 18.1 9 Noroeste 23 Noroeste 0 -- -- 46
2017-11-05 11:00:00 17.4 10 Noroeste 24 Noroeste 0 -- -- 50
2017-11-05 10:00:00 16 8 Noroeste 22 Noroeste 0 -- -- 59
2017-11-05 09:00:00 14.8 9 Noroeste 21 Norte 0 -- -- 68
2017-11-05 08:00:00 12.6 5 Noroeste 21 Noroeste 0.1 -- -- 79
2017-11-05 07:00:00 12.3 7 Noroeste 18 Noroeste 0 -- -- 81
2017-11-05 06:00:00 12.5 8 Noroeste 17 Oeste 0 -- -- 77
2017-11-05 05:00:00 13 6 Noroeste 16 Noroeste 0 -- -- 73
2017-11-05 04:00:00 12.7 7 Noroeste 16 Norte 0 -- -- 75
2017-11-05 03:00:00 12.8 5 Norte 17 Noroeste 0 -- -- 75
2017-11-05 02:00:00 12.9 8 Noroeste 16 Norte 0 -- -- 75
2017-11-05 01:00:00 12.8 9 Noroeste 18 Noroeste 0 -- -- 75
2017-11-05 00:00:00 12.6 9 Noroeste 17 Norte 0 -- -- 74
2017-11-04 23:00:00 12.7 7 Noroeste 19 Noroeste 0 -- -- 73
2017-11-04 22:00:00 13 8 Noroeste 16 Norte 0 -- -- 67
2017-11-04 21:00:00 12.2 5 Noroeste 17 Noroeste 0 -- -- 68
2017-11-04 20:00:00 12.8 7 Noroeste 18 Norte 0 -- -- 69
2017-11-04 19:00:00 13.3 9 Noroeste 18 Noroeste 0 -- -- 68
2017-11-04 18:00:00 13.8 8 Noroeste 17 Noroeste 0 -- -- 66
2017-11-04 17:00:00 14.1 4 Noroeste 17 Norte 0 -- -- 67
2017-11-04 16:00:00 15.1 5 Norte 14 Noroeste 0 -- -- 61
2017-11-04 15:00:00 17 7 Noroeste 12 Noroeste 0 -- -- 55
2017-11-04 14:00:00 14.3 3 Norte 11 Norte 0 -- -- 60
2017-11-04 13:00:00 14.1 4 Norte 13 Noroeste 0.1 -- -- 70
2017-11-04 12:00:00 12.1 4 Noroeste 27 Noroeste 1.7 -- -- 78
2017-11-04 11:00:00 12.8 10 Noroeste 23 Norte 0.2 -- -- 77
2017-11-04 10:00:00 15 0 Calma 11 Oeste 0 -- -- 61
2017-11-04 09:00:00 12.9 4 Norte 13 Noroeste 0 -- -- 72
2017-11-04 08:00:00 12.3 2 Noroeste 11 Noroeste 0 -- -- 75
2017-11-04 07:00:00 12 3 Noroeste 11 Noroeste 0 -- -- 75
2017-11-04 06:00:00 11.8 5 Noroeste 13 Oeste 0 -- -- 74
2017-11-04 05:00:00 12.5 4 Noroeste 11 Noroeste 0 -- -- 66
2017-11-04 04:00:00 12.8 4 Noroeste 11 Sur 0 -- -- 67
2017-11-04 03:00:00 13.4 4 Sur 11 Oeste 0 -- -- 66
2017-11-04 02:00:00 14.1 3 Sudoeste 17 Sudoeste 0 -- -- 64
2017-11-04 01:00:00 14.8 2 Sudoeste 15 Sudoeste 0 -- -- 61
2017-11-04 00:00:00 14.9 0 Calma 13 Oeste 0 -- -- 65
2017-11-03 23:00:00 14.3 5 Nordeste 20 Nordeste 0 -- -- 83
2017-11-03 22:00:00 15.8 3 Noroeste 14 Noroeste 0 -- -- 68
2017-11-03 21:00:00 15.2 2 Oeste 14 Norte 0 -- -- 77
2017-11-03 20:00:00 15.1 3 Nordeste 22 Este 0 -- -- 82
2017-11-03 19:00:00 14.9 9 Este 24 Este 0 -- -- 84
2017-11-03 18:00:00 16.4 11 Nordeste 31 Este 0 -- -- 71
2017-11-03 17:00:00 18 11 Nordeste 29 Nordeste 0 -- -- 55
2017-11-03 16:00:00 18.9 10 Nordeste 32 Nordeste 0 -- -- 49
2017-11-03 15:00:00 19.6 14 Nordeste 32 Nordeste 0 -- -- 47
2017-11-03 14:00:00 20.7 17 Nordeste 33 Nordeste 0 -- -- 42
2017-11-03 13:00:00 21.2 12 Nordeste 25 Este 0 -- -- 38
2017-11-03 12:00:00 22.3 5 Nordeste 20 Nordeste 0 -- -- 35
2017-11-03 11:00:00 20.1 9 Este 24 Este 0 -- -- 37
2017-11-03 10:00:00 18.8 7 Nordeste 14 Nordeste 0 -- -- 37
2017-11-03 09:00:00 13.4 2 Norte 13 Noroeste 0 -- -- 60
2017-11-03 08:00:00 13 2 Noroeste 11 Oeste 0 -- -- 71
2017-11-03 07:00:00 12.8 2 Oeste 11 Noroeste 0 -- -- 82
2017-11-03 06:00:00 12.2 0 Calma 14 Noroeste 0 -- -- 86
2017-11-03 05:00:00 12 3 Noroeste 9 Noroeste 0 -- -- 91
2017-11-03 04:00:00 11.9 0 Calma 9 Noroeste 0 -- -- 91
2017-11-03 03:00:00 11.8 4 Norte 13 Noroeste 0 -- -- 90
2017-11-03 02:00:00 12.2 0 Calma 12 Noroeste 0 -- -- 93
2017-11-03 01:00:00 13 2 Sur 8 Sudoeste 0 -- -- 87
2017-11-03 00:00:00 13.8 0 Calma 8 Nordeste 0 -- -- 83
2017-11-02 23:00:00 13.5 0 Calma 9 Norte 0 -- -- 76
2017-11-02 22:00:00 13.6 0 Calma 10 Nordeste 0 -- -- 81
2017-11-02 21:00:00 14 0 Calma 9 Sur 0 -- -- 82
2017-11-02 20:00:00 14.4 3 Este 10 Sudeste 0 -- -- 84
2017-11-02 19:00:00 15.6 3 Este 15 Este 0 -- -- 69
2017-11-02 18:00:00 17.4 7 Este 27 Nordeste 0 -- -- 58
2017-11-02 17:00:00 18.7 14 Este 31 Este 0 -- -- 46
2017-11-02 16:00:00 20.4 17 Este 33 Este 0 -- -- 37
2017-11-02 15:00:00 20.9 15 Este 32 Este 0 -- -- 36
2017-11-02 14:00:00 21.2 17 Nordeste 35 Este 0 -- -- 38
2017-11-02 13:00:00 19.2 18 Nordeste 36 Este 0 -- -- 42
2017-11-02 12:00:00 19.3 14 Nordeste 30 Nordeste 0 -- -- 42
2017-11-02 11:00:00 17.7 13 Este 27 Nordeste 0 -- -- 50
2017-11-02 10:00:00 15.7 12 Nordeste 24 Nordeste 0 -- -- 64
2017-11-02 09:00:00 13.3 0 Calma 8 Nordeste 0 -- -- 71
2017-11-02 08:00:00 10.7 0 Calma 10 Norte 0 -- -- 79
2017-11-02 07:00:00 10.5 0 Calma 11 Noroeste 0 -- -- 81
2017-11-02 06:00:00 10.5 0 Calma 13 Nordeste 0 -- -- 87
2017-11-02 05:00:00 10.9 3 Norte 22 Este 0 -- -- 91
2017-11-02 04:00:00 11.2 3 Nordeste 15 Este 0 -- -- 90
2017-11-02 03:00:00 11.1 5 Norte 19 Este 0 -- -- 94
2017-11-02 02:00:00 11.9 11 Nordeste 21 Nordeste 0 -- -- 95
2017-11-02 01:00:00 12.1 5 Nordeste 18 Nordeste 0 -- -- 95
2017-11-02 00:00:00 12.4 6 Nordeste 13 Este 0 -- -- 95
2017-11-01 23:00:00 13.1 5 Este 11 Nordeste 0 -- -- 94
2017-11-01 22:00:00 13.8 3 Nordeste 10 Este 0 -- -- 86
2017-11-01 21:00:00 14.3 4 Nordeste 13 Este 0 -- -- 84
2017-11-01 20:00:00 15 7 Nordeste 20 Este 0 -- -- 81
2017-11-01 19:00:00 15.3 8 Nordeste 26 Este 0 -- -- 80
2017-11-01 18:00:00 16.6 14 Este 28 Este 0 -- -- 70
2017-11-01 17:00:00 17.9 13 Nordeste 34 Este 0 -- -- 60
2017-11-01 16:00:00 18.8 16 Nordeste 37 Nordeste 0 -- -- 53
2017-11-01 15:00:00 19.2 17 Nordeste 40 Nordeste 0 -- -- 49
2017-11-01 14:00:00 19.6 17 Nordeste 38 Este 0 -- -- 48
2017-11-01 13:00:00 19.2 17 Nordeste 33 Este 0 -- -- 46
2017-11-01 12:00:00 18.6 15 Nordeste 30 Nordeste 0 -- -- 52
2017-11-01 11:00:00 17 14 Nordeste 32 Este 0 -- -- 59
2017-11-01 10:00:00 16.1 9 Nordeste 19 Este 0 -- -- 64
2017-11-01 09:00:00 13.4 3 Nordeste 8 Este 0 -- -- 72
2017-11-01 08:00:00 11.5 0 Calma 4 Noroeste 0 -- -- 85
2017-11-01 07:00:00 10.8 0 Calma 5 Noroeste 0 -- -- 90
2017-11-01 06:00:00 10.7 2 Norte 6 Este 0 -- -- 93
2017-11-01 05:00:00 10.9 0 Calma 6 Norte 0 -- -- 93
2017-11-01 04:00:00 11.1 2 Nordeste 12 Nordeste 0 -- -- 93
2017-11-01 03:00:00 11.7 6 Este 17 Este 0 -- -- 92
2017-11-01 02:00:00 11.8 4 Este 12 Nordeste 0 -- -- 95
2017-11-01 01:00:00 12.1 5 Nordeste 12 Nordeste 0 -- -- 93
2017-11-01 00:00:00 13.3 6 Este 14 Este 0 -- -- 85
2017-10-31 23:00:00 14.4 3 Nordeste 15 Este 0 -- -- 82
2017-10-31 22:00:00 14.1 8 Nordeste 15 Nordeste 0 -- -- 85
2017-10-31 21:00:00 13.6 5 Nordeste 15 Nordeste 0 -- -- 87
2017-10-31 20:00:00 14.4 6 Nordeste 21 Este 0 -- -- 83
2017-10-31 19:00:00 15.3 9 Este 21 Este 0 -- -- 74
2017-10-31 18:00:00 17.1 8 Nordeste 25 Nordeste 0 -- -- 56
2017-10-31 17:00:00 18.4 10 Nordeste 28 Nordeste 0 -- -- 49
2017-10-31 16:00:00 19.4 12 Nordeste 32 Nordeste 0 -- -- 45
2017-10-31 15:00:00 20 14 Nordeste 30 Nordeste 0 -- -- 42
2017-10-31 14:00:00 19.4 14 Nordeste 30 Nordeste 0 -- -- 42
2017-10-31 13:00:00 19.1 15 Este 32 Este 0 -- -- 42
2017-10-31 12:00:00 19.4 14 Nordeste 28 Nordeste 0 -- -- 43
2017-10-31 11:00:00 17.3 13 Nordeste 26 Este 0 -- -- 49
2017-10-31 10:00:00 15.9 9 Nordeste 23 Nordeste 0 -- -- 60
2017-10-31 09:00:00 14.6 6 Nordeste 15 Este 0 -- -- 76
2017-10-31 08:00:00 12 3 Nordeste 12 Este 0 -- -- 93
2017-10-31 07:00:00 11.3 2 Nordeste 7 Nordeste 0 -- -- 94
2017-10-31 06:00:00 10.3 2 Nordeste 9 Norte 0 -- -- 93
2017-10-31 05:00:00 9.6 0 Calma 4 Nordeste 0 -- -- 88
2017-10-31 04:00:00 9.8 0 Calma 5 Nordeste 0 -- -- 86
2017-10-31 03:00:00 9.9 0 Calma 6 Norte 0 -- -- 84
2017-10-31 02:00:00 10 0 Calma 6 Noroeste 0 -- -- 84
2017-10-31 01:00:00 11.5 0 Calma 6 Norte 0 -- -- 79
2017-10-31 00:00:00 10.9 0 Calma 8 Noroeste 0 -- -- 77
2017-10-30 23:00:00 12.4 2 Norte 8 Oeste 0 -- -- 73
2017-10-30 22:00:00 13.1 0 Calma 7 Sudeste 0 -- -- 71
2017-10-30 21:00:00 13.5 3 Sur 7 Sur 0 -- -- 69
2017-10-30 20:00:00 14.3 2 Sudeste 10 Nordeste 0 -- -- 64
2017-10-30 19:00:00 14.8 4 Este 17 Este 0 -- -- 62
2017-10-30 18:00:00 16.4 8 Este 28 Este 0 -- -- 59
2017-10-30 17:00:00 18.4 12 Nordeste 29 Este 0 -- -- 51
2017-10-30 16:00:00 19.5 12 Nordeste 30 Este 0 -- -- 47
2017-10-30 15:00:00 21.3 12 Nordeste 27 Este 0 -- -- 45
2017-10-30 14:00:00 21.1 11 Nordeste 28 Este 0 -- -- 45
2017-10-30 13:00:00 21.3 12 Nordeste 24 Este 0 -- -- 46
2017-10-30 12:00:00 20.6 9 Nordeste 19 Este 0 -- -- 46
2017-10-30 11:00:00 19.1 5 Nordeste 11 Este 0 -- -- 49
2017-10-30 10:00:00 17.7 2 Nordeste 5 Nordeste 0 -- -- 50
2017-10-30 09:00:00 14.6 0 Calma 7 Noroeste 0 -- -- 60
2017-10-30 08:00:00 12.1 2 Oeste 11 Noroeste 0 -- -- 66
2017-10-30 07:00:00 11.1 4 Oeste 11 Noroeste 0 -- -- 70
2017-10-30 06:00:00 12.8 5 Noroeste 8 Oeste 0 -- -- 65
2017-10-30 05:00:00 11.4 3 Noroeste 13 Oeste 0 -- -- 73
2017-10-30 04:00:00 12.5 2 Noroeste 9 Oeste 0 -- -- 75
2017-10-30 03:00:00 11.8 3 Oeste 10 Oeste 0 -- -- 85
2017-10-30 02:00:00 11.5 0 Calma 9 Oeste 0 -- -- 86
2017-10-30 01:00:00 12.2 0 Calma 5 Noroeste 0 -- -- 81
2017-10-30 00:00:00 12.4 0 Calma 7 Norte 0 -- -- 80
2017-10-29 23:00:00 13.1 2 Noroeste 10 Noroeste 0 -- -- 77
2017-10-29 22:00:00 13.5 3 Noroeste 10 Norte 0 -- -- 75
2017-10-29 21:00:00 14.3 2 Noroeste 9 Sudoeste 0 -- -- 73
2017-10-29 20:00:00 14.7 0 Calma 11 Este 0 -- -- 72
2017-10-29 19:00:00 16.1 5 Nordeste 17 Este 0 -- -- 68
2017-10-29 18:00:00 17.4 6 Este 22 Este 0 -- -- 61
2017-10-29 17:00:00 19.1 9 Nordeste 39 Este 0 -- -- 53
2017-10-29 16:00:00 20.5 9 Nordeste 26 Este 0 -- -- 48
2017-10-29 15:00:00 21.6 10 Nordeste 24 Este 0 -- -- 46
2017-10-29 14:00:00 22 10 Nordeste 25 Este 0 -- -- 46
2017-10-29 13:00:00 21.5 9 Nordeste 23 Este 0 -- -- 47
2017-10-29 12:00:00 19.7 10 Este 20 Este 0 -- -- 49
2017-10-29 11:00:00 18.1 6 Nordeste 15 Nordeste 0 -- -- 52
2017-10-29 10:00:00 18 0 Calma 5 Norte 0 -- -- 55
2017-10-29 09:00:00 14.1 0 Calma 9 Noroeste 0 -- -- 69
2017-10-29 08:00:00 11.9 0 Calma 8 Oeste 0 -- -- 77
2017-10-29 07:00:00 12.1 2 Noroeste 8 Oeste 0 -- -- 79
2017-10-29 06:00:00 11.4 2 Noroeste 8 Noroeste 0 -- -- 81
2017-10-29 05:00:00 11.3 0 Calma 10 Noroeste 0 -- -- 81
2017-10-29 04:00:00 11.2 0 Calma 7 Oeste 0 -- -- 81
2017-10-29 03:00:00 11.6 0 Calma 8 Noroeste 0 -- -- 81
2017-10-29 02:00:00 11.5 0 Calma 6 Oeste 0 -- -- 76
2017-10-29 01:00:00 13.3 3 Noroeste 9 Noroeste 0 -- -- 76
2017-10-29 00:00:00 13.9 3 Noroeste 8 Norte 0 -- -- 76
2017-10-28 23:00:00 14.5 3 Noroeste 9 Norte 0 -- -- 75
2017-10-28 22:00:00 14.7 2 Norte 9 Nordeste 0 -- -- 76
2017-10-28 21:00:00 15.7 5 Nordeste 13 Este 0 -- -- 74
2017-10-28 20:00:00 16.8 4 Nordeste 24 Este 0 -- -- 69
2017-10-28 19:00:00 18.8 11 Este 26 Este 0 -- -- 56
2017-10-28 18:00:00 20.5 12 Este 30 Este 0 -- -- 50
2017-10-28 17:00:00 21.2 12 Nordeste 28 Este 0 -- -- 47
2017-10-28 16:00:00 22 13 Nordeste 28 Nordeste 0 -- -- 45
2017-10-28 15:00:00 22.1 12 Nordeste 29 Este 0 -- -- 44
2017-10-28 14:00:00 20.8 15 Nordeste 31 Nordeste 0 -- -- 48
2017-10-28 13:00:00 20 14 Este 27 Este 0 -- -- 46
2017-10-28 12:00:00 19.6 9 Este 17 Nordeste 0 -- -- 38
2017-10-28 11:00:00 18.7 4 Nordeste 10 Este 0 -- -- 35
2017-10-28 10:00:00 16.8 0 Calma 6 Noroeste 0 -- -- 37
2017-10-28 09:00:00 13.4 4 Noroeste 10 Noroeste 0 -- -- 37
2017-10-28 08:00:00 14.3 2 Norte 17 Oeste 0 -- -- 35
2017-10-28 07:00:00 14.7 11 Noroeste 16 Noroeste 0 -- -- 34
2017-10-28 06:00:00 16.3 2 Noroeste 14 Noroeste 0 -- -- 33
2017-10-28 05:00:00 16.9 4 Noroeste 12 Nordeste 0 -- -- 31
2017-10-28 04:00:00 17.8 2 Noroeste 15 Noroeste 0 -- -- 30
2017-10-28 03:00:00 18.5 4 Norte 18 Noroeste 0 -- -- 31
2017-10-28 02:00:00 18.7 4 Noroeste 15 Noroeste 0 -- -- 29
2017-10-28 01:00:00 18.4 4 Norte 18 Noroeste 0 -- -- 29
2017-10-28 00:00:00 18.6 7 Norte 18 Noroeste 0 -- -- 29
2017-10-27 23:00:00 19.2 9 Noroeste 21 Norte 0 -- -- 29
2017-10-27 22:00:00 20.4 3 Noroeste 19 Oeste 0 -- -- 29
2017-10-27 21:00:00 19.5 4 Noroeste 10 Norte 0 -- -- 31
2017-10-27 20:00:00 20.6 3 Noroeste 13 Nordeste 0 -- -- 30
2017-10-27 19:00:00 22.4 3 Noroeste 13 Nordeste 0 -- -- 28
2017-10-27 18:00:00 24.7 6 Nordeste 18 Nordeste 0 -- -- 26
2017-10-27 17:00:00 25.7 9 Nordeste 27 Este 0 -- -- 24
2017-10-27 16:00:00 26.8 11 Nordeste 22 Este 0 -- -- 23
2017-10-27 15:00:00 27.2 10 Nordeste 23 Este 0 -- -- 23
2017-10-27 14:00:00 26.6 10 Nordeste 23 Nordeste 0 -- -- 23
2017-10-27 13:00:00 25.6 12 Este 24 Nordeste 0 -- -- 24
2017-10-27 12:00:00 23.4 8 Nordeste 15 Este 0 -- -- 25
2017-10-27 11:00:00 21.5 0 Calma 3 Nordeste 0 -- -- 31
2017-10-27 10:00:00 17.1 0 Calma 8 Noroeste 0 -- -- 34
2017-10-27 09:00:00 14 0 Calma 10 Noroeste 0 -- -- 35
2017-10-27 08:00:00 12.1 0 Calma 8 Oeste 0 -- -- 37
2017-10-27 07:00:00 12 0 Calma 4 Norte 0 -- -- 37
2017-10-27 06:00:00 12.1 0 Calma 4 Oeste 0 -- -- 38
2017-10-27 05:00:00 11.8 0 Calma 2 Noroeste 0 -- -- 39
2017-10-27 04:00:00 12.7 0 Calma 5 Oeste 0 -- -- 39
2017-10-27 03:00:00 12.4 0 Calma 3 Nordeste 0 -- -- 42
2017-10-27 02:00:00 13.2 0 Calma 4 Oeste 0 -- -- 42
2017-10-27 01:00:00 13.8 0 Calma 3 Norte 0 -- -- 42
2017-10-27 00:00:00 14.4 0 Calma 9 Oeste 0 -- -- 42
2017-10-26 23:00:00 15.6 0 Calma 11 Norte 0 -- -- 38
2017-10-26 22:00:00 16.8 3 Oeste 19 Noroeste 0 -- -- 35
2017-10-26 21:00:00 18 4 Noroeste 11 Noroeste 0 -- -- 36
2017-10-26 20:00:00 19.2 2 Norte 14 Nordeste 0 -- -- 37
2017-10-26 19:00:00 21.1 9 Nordeste 22 Este 0 -- -- 32
2017-10-26 18:00:00 23.2 12 Nordeste 24 Nordeste 0 -- -- 29
2017-10-26 17:00:00 24.3 13 Nordeste 27 Nordeste 0 -- -- 27
2017-10-26 16:00:00 25.4 11 Nordeste 29 Este 0 -- -- 28
2017-10-26 15:00:00 24.9 16 Nordeste 28 Este 0 -- -- 28
2017-10-26 14:00:00 24.4 15 Este 35 Este 0 -- -- 30
2017-10-26 13:00:00 23.3 13 Nordeste 28 Nordeste 0 -- -- 31
2017-10-26 12:00:00 21.7 12 Este 23 Este 0 -- -- 35
2017-10-26 11:00:00 19.5 2 Nordeste -- -- -- -- -- 41
2017-10-26 10:00:00 -- 0 Calma 5 Este 0 -- -- --
2017-10-26 09:00:00 12.3 0 Calma 3 Nordeste 0 -- -- 56
2017-10-26 08:00:00 10 0 Calma 3 Este 0 -- -- 63
2017-10-26 07:00:00 10.1 0 Calma 2 Nordeste 0 -- -- 61
2017-10-26 06:00:00 10.5 0 Calma 2 Nordeste 0 -- -- 64
2017-10-26 05:00:00 11.1 0 Calma 7 Oeste 0 -- -- 62
2017-10-26 04:00:00 11.8 0 Calma 4 Nordeste 0 -- -- 60
2017-10-26 03:00:00 12.7 0 Calma 7 Noroeste 0 -- -- 56
2017-10-26 02:00:00 12.8 0 Calma 10 Noroeste 0 -- -- 58
2017-10-26 01:00:00 14.4 3 Norte 8 Nordeste 0 -- -- 53
2017-10-26 00:00:00 14.8 4 Noroeste 14 Norte 0 -- -- 47
2017-10-25 23:00:00 15.7 3 Noroeste 12 Nordeste 0 -- -- 47
2017-10-25 22:00:00 16.2 4 Noroeste 12 Noroeste 0 -- -- 46
2017-10-25 21:00:00 17 4 Norte 11 Nordeste 0 -- -- 46
2017-10-25 20:00:00 17.8 5 Nordeste 18 Este 0 -- -- 46
2017-10-25 19:00:00 20.1 10 Este 26 Este 0 -- -- 38
2017-10-25 18:00:00 21.7 14 Este 31 Nordeste 0 -- -- 35
2017-10-25 17:00:00 22.9 12 Nordeste 34 Este 0 -- -- 31
2017-10-25 16:00:00 23.9 15 Nordeste 36 Este 0 -- -- 30
2017-10-25 15:00:00 23.5 19 Este 40 Este 0 -- -- 31
2017-10-25 14:00:00 23.2 21 Este 39 Este 0 -- -- 31
2017-10-25 13:00:00 22.5 17 Nordeste 35 Este 0 -- -- 33
2017-10-25 12:00:00 21.9 14 Nordeste 35 Nordeste 0 -- -- 37
2017-10-25 11:00:00 18.4 15 Este 28 Este 0 -- -- 42
2017-10-25 10:00:00 17.1 0 Calma 4 Nordeste 0 -- -- 50
2017-10-25 09:00:00 13.1 0 Calma 3 Sudeste 0 -- -- 53
2017-10-25 08:00:00 11.5 0 Calma 5 Noroeste 0 -- -- 57
2017-10-25 07:00:00 11.6 0 Calma 4 Noroeste 0 -- -- 57
2017-10-25 06:00:00 11.3 0 Calma 3 Nordeste 0 -- -- 57
2017-10-25 05:00:00 12 0 Calma 8 Noroeste 0 -- -- 52
2017-10-25 04:00:00 13.2 0 Calma 14 Sur 0 -- -- 49
2017-10-25 03:00:00 13.3 0 Calma 7 Noroeste 0 -- -- 50
2017-10-25 02:00:00 13.6 0 Calma 7 Noroeste 0 -- -- 54
2017-10-25 01:00:00 14.1 2 Noroeste 8 Noroeste 0 -- -- 55
2017-10-25 00:00:00 14.3 0 Calma 6 Oeste 0 -- -- 60